JAL307 RJTT-RJFF
Flight info
| Callsign | JAL307 |
|---|---|
| Flight time | 1h 27m |
| Altitude | 40000 |
| Route | GUSRO Y20 KIRIN |
| Aircraft | A359/H-SDE2E3GHIJ3J4J5LM1ORWXY/LB1D1 |
Departure
| Time | 2026-05-07 12:45 |
|---|---|
| Airport | Tokyo Haneda International Airport (RJTT) |
Arrival
| Time | 2026-05-07 14:12 |
|---|---|
| Airport | Fukuoka Airport (RJFF) |
| Time | Latitude | Longitude | Altitude | Speed | Heading |
|---|---|---|---|---|---|
| 2026-05-07 12:27 | 35.54658 | 139.78442 | 29 ft | 0 kts | 60° |
| 2026-05-07 12:35 | 35.54657 | 139.78442 | 29 ft | 1 kts | 60° |
| 2026-05-07 12:36 | 35.54645 | 139.78415 | 29 ft | 4 kts | 60° |
| 2026-05-07 12:36 | 35.54631 | 139.78386 | 29 ft | 4 kts | 60° |
| 2026-05-07 12:36 | 35.54618 | 139.78358 | 29 ft | 4 kts | 60° |
| 2026-05-07 12:36 | 35.54607 | 139.78334 | 29 ft | 4 kts | 54° |
| 2026-05-07 12:37 | 35.54591 | 139.78313 | 30 ft | 4 kts | 25° |
| 2026-05-07 12:37 | 35.54572 | 139.78306 | 29 ft | 4 kts | 347° |
| 2026-05-07 12:37 | 35.54549 | 139.78318 | 30 ft | 4 kts | 330° |
| 2026-05-07 12:37 | 35.54543 | 139.78322 | 30 ft | 0 kts | 330° |
| 2026-05-07 12:40 | 35.54545 | 139.78320 | 30 ft | 2 kts | 330° |
| 2026-05-07 12:40 | 35.54575 | 139.78300 | 30 ft | 7 kts | 328° |
| 2026-05-07 12:40 | 35.54594 | 139.78243 | 29 ft | 9 kts | 262° |
| 2026-05-07 12:40 | 35.54591 | 139.78166 | 28 ft | 10 kts | 305° |
| 2026-05-07 12:41 | 35.54656 | 139.78114 | 28 ft | 13 kts | 330° |
| 2026-05-07 12:41 | 35.54741 | 139.78054 | 28 ft | 16 kts | 329° |
| 2026-05-07 12:41 | 35.54844 | 139.77982 | 28 ft | 19 kts | 330° |
| 2026-05-07 12:41 | 35.54961 | 139.77900 | 28 ft | 21 kts | 330° |
| 2026-05-07 12:42 | 35.55095 | 139.77802 | 28 ft | 23 kts | 330° |
| 2026-05-07 12:42 | 35.55243 | 139.77698 | 28 ft | 25 kts | 330° |
| 2026-05-07 12:42 | 35.55398 | 139.77588 | 29 ft | 24 kts | 330° |
| 2026-05-07 12:42 | 35.55546 | 139.77483 | 29 ft | 25 kts | 330° |
| 2026-05-07 12:43 | 35.55686 | 139.77383 | 28 ft | 20 kts | 329° |
| 2026-05-07 12:43 | 35.55756 | 139.77324 | 28 ft | 10 kts | 307° |
| 2026-05-07 12:43 | 35.55740 | 139.77254 | 27 ft | 10 kts | 224° |
| 2026-05-07 12:43 | 35.55681 | 139.77199 | 30 ft | 11 kts | 215° |
| 2026-05-07 12:44 | 35.55623 | 139.77176 | 31 ft | 8 kts | 169° |
| 2026-05-07 12:44 | 35.55582 | 139.77203 | 31 ft | 6 kts | 150° |
| 2026-05-07 12:44 | 35.55497 | 139.77263 | 30 ft | 37 kts | 150° |
| 2026-05-07 12:44 | 35.55040 | 139.77587 | 28 ft | 115 kts | 150° |
| 2026-05-07 12:45 | 35.54164 | 139.78215 | 189 ft | 165 kts | 152° |
| 2026-05-07 12:45 | 35.53199 | 139.78923 | 1163 ft | 156 kts | 152° |
| 2026-05-07 12:45 | 35.52257 | 139.79626 | 1860 ft | 166 kts | 153° |
| 2026-05-07 12:45 | 35.51178 | 139.80379 | 2242 ft | 192 kts | 155° |
| 2026-05-07 12:46 | 35.49911 | 139.81247 | 2577 ft | 224 kts | 154° |
| 2026-05-07 12:46 | 35.48423 | 139.81992 | 3168 ft | 235 kts | 174° |
| 2026-05-07 12:46 | 35.46812 | 139.81796 | 3981 ft | 237 kts | 202° |
| 2026-05-07 12:46 | 35.45485 | 139.80606 | 4828 ft | 243 kts | 231° |
| 2026-05-07 12:47 | 35.44797 | 139.78707 | 5663 ft | 252 kts | 258° |
| 2026-05-07 12:47 | 35.44943 | 139.76536 | 6573 ft | 263 kts | 285° |
| 2026-05-07 12:47 | 35.45905 | 139.74598 | 7531 ft | 274 kts | 307° |
| 2026-05-07 12:47 | 35.47251 | 139.72916 | 8454 ft | 281 kts | 311° |
| 2026-05-07 12:48 | 35.48677 | 139.71252 | 9411 ft | 284 kts | 312° |
| 2026-05-07 12:48 | 35.50120 | 139.69574 | 10327 ft | 289 kts | 312° |
| 2026-05-07 12:48 | 35.51632 | 139.67817 | 10862 ft | 309 kts | 312° |
| 2026-05-07 12:48 | 35.53247 | 139.65950 | 11336 ft | 328 kts | 312° |
| 2026-05-07 12:49 | 35.54911 | 139.63976 | 12023 ft | 335 kts | 308° |
| 2026-05-07 12:49 | 35.56276 | 139.61669 | 12818 ft | 335 kts | 294° |
| 2026-05-07 12:49 | 35.57101 | 139.58994 | 13607 ft | 336 kts | 282° |
| 2026-05-07 12:49 | 35.57708 | 139.56202 | 14347 ft | 341 kts | 281° |
| 2026-05-07 12:50 | 35.58293 | 139.53349 | 15078 ft | 347 kts | 281° |
| 2026-05-07 12:50 | 35.58882 | 139.50457 | 15836 ft | 351 kts | 281° |
| 2026-05-07 12:50 | 35.59476 | 139.47527 | 16543 ft | 356 kts | 281° |
| 2026-05-07 12:50 | 35.60074 | 139.44564 | 17233 ft | 360 kts | 281° |
| 2026-05-07 12:51 | 35.60677 | 139.41569 | 17953 ft | 364 kts | 281° |
| 2026-05-07 12:51 | 35.61281 | 139.38561 | 18635 ft | 369 kts | 281° |
| 2026-05-07 12:51 | 35.61898 | 139.35487 | 19313 ft | 373 kts | 281° |
| 2026-05-07 12:52 | 35.62495 | 139.32516 | 19976 ft | 377 kts | 281° |
| 2026-05-07 12:52 | 35.63125 | 139.29370 | 20655 ft | 380 kts | 281° |
| 2026-05-07 12:52 | 35.63761 | 139.26182 | 21262 ft | 385 kts | 281° |
| 2026-05-07 12:52 | 35.64404 | 139.22967 | 21874 ft | 390 kts | 281° |
| 2026-05-07 12:53 | 35.65059 | 139.19710 | 22452 ft | 395 kts | 281° |
| 2026-05-07 12:53 | 35.65706 | 139.16416 | 23107 ft | 398 kts | 280° |
| 2026-05-07 12:53 | 35.66127 | 139.13053 | 23725 ft | 399 kts | 271° |
| 2026-05-07 12:53 | 35.66164 | 139.09631 | 24355 ft | 401 kts | 266° |
| 2026-05-07 12:54 | 35.66052 | 139.06188 | 24935 ft | 404 kts | 264° |
| 2026-05-07 12:54 | 35.65876 | 139.02733 | 25560 ft | 406 kts | 264° |
| 2026-05-07 12:54 | 35.65679 | 138.99247 | 26168 ft | 410 kts | 264° |
| 2026-05-07 12:54 | 35.65487 | 138.95731 | 26765 ft | 413 kts | 264° |
| 2026-05-07 12:55 | 35.65303 | 138.92195 | 27316 ft | 416 kts | 263° |
| 2026-05-07 12:55 | 35.65125 | 138.88630 | 27853 ft | 420 kts | 264° |
| 2026-05-07 12:55 | 35.64955 | 138.85025 | 28377 ft | 423 kts | 264° |
| 2026-05-07 12:55 | 35.64789 | 138.81394 | 28875 ft | 427 kts | 264° |
| 2026-05-07 12:56 | 35.64624 | 138.77780 | 29401 ft | 429 kts | 264° |
| 2026-05-07 12:56 | 35.64455 | 138.74107 | 29914 ft | 432 kts | 263° |
| 2026-05-07 12:56 | 35.64283 | 138.70405 | 30370 ft | 435 kts | 263° |
| 2026-05-07 12:56 | 35.64108 | 138.66673 | 30808 ft | 439 kts | 263° |
| 2026-05-07 12:57 | 35.63922 | 138.62909 | 31243 ft | 442 kts | 263° |
| 2026-05-07 12:57 | 35.63727 | 138.59127 | 31681 ft | 445 kts | 263° |
| 2026-05-07 12:57 | 35.63528 | 138.55328 | 32127 ft | 447 kts | 263° |
| 2026-05-07 12:57 | 35.63320 | 138.51499 | 32543 ft | 449 kts | 263° |
| 2026-05-07 12:58 | 35.63114 | 138.47656 | 32938 ft | 452 kts | 263° |
| 2026-05-07 12:58 | 35.62907 | 138.43781 | 33302 ft | 455 kts | 263° |
| 2026-05-07 12:58 | 35.62699 | 138.39889 | 33670 ft | 457 kts | 263° |
| 2026-05-07 12:58 | 35.62490 | 138.35983 | 33979 ft | 460 kts | 263° |
| 2026-05-07 12:59 | 35.62278 | 138.32057 | 34309 ft | 462 kts | 263° |
| 2026-05-07 12:59 | 35.62066 | 138.28119 | 34679 ft | 462 kts | 264° |
| 2026-05-07 12:59 | 35.61854 | 138.24186 | 35146 ft | 460 kts | 264° |
| 2026-05-07 12:59 | 35.61640 | 138.20254 | 35622 ft | 459 kts | 263° |
| 2026-05-07 13:00 | 35.61432 | 138.16402 | 36071 ft | 457 kts | 264° |
| 2026-05-07 13:00 | 35.61094 | 138.12528 | 36531 ft | 454 kts | 258° |
| 2026-05-07 13:00 | 35.60550 | 138.08714 | 36895 ft | 453 kts | 257° |
| 2026-05-07 13:00 | 35.59931 | 138.04925 | 37292 ft | 451 kts | 256° |
| 2026-05-07 13:01 | 35.59275 | 138.01163 | 37696 ft | 450 kts | 256° |
| 2026-05-07 13:01 | 35.58604 | 137.97420 | 38104 ft | 447 kts | 256° |
| 2026-05-07 13:01 | 35.57933 | 137.93704 | 38521 ft | 444 kts | 256° |
| 2026-05-07 13:01 | 35.57269 | 137.90006 | 38914 ft | 441 kts | 256° |
| 2026-05-07 13:02 | 35.56611 | 137.86320 | 39236 ft | 440 kts | 256° |
| 2026-05-07 13:02 | 35.55958 | 137.82661 | 39519 ft | 439 kts | 256° |
| 2026-05-07 13:02 | 35.55307 | 137.78990 | 39821 ft | 438 kts | 256° |
| 2026-05-07 13:02 | 35.54659 | 137.75327 | 39946 ft | 440 kts | 256° |
| 2026-05-07 13:03 | 35.53351 | 137.67966 | 39951 ft | 441 kts | 256° |
| 2026-05-07 13:03 | 35.52047 | 137.60650 | 39955 ft | 441 kts | 256° |
| 2026-05-07 13:04 | 35.50727 | 137.53295 | 39954 ft | 441 kts | 256° |
| 2026-05-07 13:04 | 35.49400 | 137.45934 | 39950 ft | 442 kts | 256° |
| 2026-05-07 13:05 | 35.48069 | 137.38565 | 39944 ft | 442 kts | 256° |
| 2026-05-07 13:05 | 35.46738 | 137.31216 | 39944 ft | 442 kts | 256° |
| 2026-05-07 13:06 | 35.45405 | 137.23865 | 39944 ft | 441 kts | 256° |
| 2026-05-07 13:06 | 35.44063 | 137.16506 | 39945 ft | 442 kts | 256° |
| 2026-05-07 13:07 | 35.42707 | 137.09134 | 39935 ft | 443 kts | 256° |
| 2026-05-07 13:07 | 35.41363 | 137.01830 | 39934 ft | 443 kts | 256° |
| 2026-05-07 13:08 | 35.40002 | 136.94458 | 39934 ft | 443 kts | 256° |
| 2026-05-07 13:08 | 35.38639 | 136.87104 | 39935 ft | 443 kts | 256° |
| 2026-05-07 13:09 | 35.37275 | 136.79765 | 39934 ft | 442 kts | 256° |
| 2026-05-07 13:09 | 35.35905 | 136.72424 | 39924 ft | 441 kts | 256° |
| 2026-05-07 13:10 | 35.34528 | 136.65079 | 39924 ft | 442 kts | 256° |
| 2026-05-07 13:10 | 35.33158 | 136.57802 | 39926 ft | 441 kts | 256° |
| 2026-05-07 13:11 | 35.31776 | 136.50467 | 39922 ft | 441 kts | 256° |
| 2026-05-07 13:11 | 35.30398 | 136.43165 | 39925 ft | 441 kts | 256° |
| 2026-05-07 13:12 | 35.29068 | 136.36163 | 39926 ft | 440 kts | 256° |
| 2026-05-07 13:12 | 35.27683 | 136.28905 | 39925 ft | 440 kts | 255° |
| 2026-05-07 13:13 | 35.26289 | 136.21615 | 39924 ft | 440 kts | 255° |
| 2026-05-07 13:13 | 35.24886 | 136.14302 | 39926 ft | 441 kts | 255° |
| 2026-05-07 13:14 | 35.23482 | 136.07010 | 39935 ft | 441 kts | 255° |
| 2026-05-07 13:14 | 35.22311 | 136.00945 | 39934 ft | 440 kts | 255° |
| 2026-05-07 13:15 | 35.20893 | 135.93642 | 39934 ft | 440 kts | 255° |
| 2026-05-07 13:15 | 35.19477 | 135.86365 | 39934 ft | 440 kts | 255° |
| 2026-05-07 13:16 | 35.18061 | 135.79097 | 39934 ft | 440 kts | 255° |
| 2026-05-07 13:16 | 35.16771 | 135.71765 | 39934 ft | 440 kts | 257° |
| 2026-05-07 13:17 | 35.15588 | 135.64438 | 39934 ft | 440 kts | 257° |
| 2026-05-07 13:17 | 35.14388 | 135.57149 | 39937 ft | 440 kts | 257° |
| 2026-05-07 13:18 | 35.13154 | 135.49824 | 39926 ft | 439 kts | 257° |
| 2026-05-07 13:18 | 35.11910 | 135.42519 | 39923 ft | 439 kts | 257° |
| 2026-05-07 13:19 | 35.10657 | 135.35225 | 39934 ft | 438 kts | 257° |
| 2026-05-07 13:19 | 35.09411 | 135.27937 | 39933 ft | 438 kts | 257° |
| 2026-05-07 13:20 | 35.08152 | 135.20641 | 39935 ft | 439 kts | 257° |
| 2026-05-07 13:20 | 35.06903 | 135.13399 | 39933 ft | 439 kts | 257° |
| 2026-05-07 13:21 | 35.05637 | 135.06112 | 39934 ft | 439 kts | 257° |
| 2026-05-07 13:21 | 35.04369 | 134.98831 | 39937 ft | 439 kts | 257° |
| 2026-05-07 13:22 | 35.03096 | 134.91537 | 39933 ft | 438 kts | 257° |
| 2026-05-07 13:22 | 35.01826 | 134.84267 | 39933 ft | 438 kts | 257° |
| 2026-05-07 13:23 | 35.00549 | 134.77023 | 39933 ft | 438 kts | 256° |
| 2026-05-07 13:23 | 34.99266 | 134.69776 | 39931 ft | 438 kts | 256° |
| 2026-05-07 13:24 | 34.97915 | 134.62528 | 39926 ft | 437 kts | 255° |
| 2026-05-07 13:24 | 34.96470 | 134.55333 | 39927 ft | 437 kts | 255° |
| 2026-05-07 13:25 | 34.95024 | 134.48124 | 39925 ft | 437 kts | 255° |
| 2026-05-07 13:25 | 34.93594 | 134.40958 | 39924 ft | 437 kts | 255° |
| 2026-05-07 13:26 | 34.92156 | 134.33746 | 39930 ft | 437 kts | 255° |
| 2026-05-07 13:26 | 34.90723 | 134.26564 | 39935 ft | 437 kts | 255° |
| 2026-05-07 13:27 | 34.89271 | 134.19320 | 39936 ft | 437 kts | 255° |
| 2026-05-07 13:27 | 34.87825 | 134.12132 | 39935 ft | 437 kts | 255° |
| 2026-05-07 13:28 | 34.86373 | 134.04922 | 39935 ft | 438 kts | 255° |
| 2026-05-07 13:28 | 34.84915 | 133.97716 | 39934 ft | 437 kts | 255° |
| 2026-05-07 13:29 | 34.83468 | 133.90582 | 39933 ft | 437 kts | 255° |
| 2026-05-07 13:29 | 34.82003 | 133.83399 | 39934 ft | 436 kts | 255° |
| 2026-05-07 13:30 | 34.80502 | 133.76256 | 39936 ft | 436 kts | 254° |
| 2026-05-07 13:30 | 34.78983 | 133.69107 | 39935 ft | 436 kts | 254° |
| 2026-05-07 13:31 | 34.77460 | 133.61951 | 39942 ft | 436 kts | 254° |
| 2026-05-07 13:31 | 34.75944 | 133.54813 | 39944 ft | 436 kts | 254° |
| 2026-05-07 13:32 | 34.74426 | 133.47668 | 39944 ft | 436 kts | 254° |
| 2026-05-07 13:32 | 34.72902 | 133.40527 | 39943 ft | 436 kts | 254° |
| 2026-05-07 13:33 | 34.71372 | 133.33392 | 39944 ft | 436 kts | 254° |
| 2026-05-07 13:33 | 34.69837 | 133.26253 | 39952 ft | 436 kts | 254° |
| 2026-05-07 13:34 | 34.67529 | 133.15569 | 39955 ft | 436 kts | 254° |
| 2026-05-07 13:35 | 34.65984 | 133.08443 | 39952 ft | 436 kts | 254° |
| 2026-05-07 13:35 | 34.64441 | 133.01329 | 39952 ft | 435 kts | 254° |
| 2026-05-07 13:36 | 34.62908 | 132.94265 | 39963 ft | 435 kts | 254° |
| 2026-05-07 13:36 | 34.61350 | 132.87152 | 39961 ft | 436 kts | 254° |
| 2026-05-07 13:37 | 34.59789 | 132.80053 | 39961 ft | 434 kts | 254° |
| 2026-05-07 13:37 | 34.58233 | 132.72974 | 39960 ft | 434 kts | 254° |
| 2026-05-07 13:38 | 34.56672 | 132.65894 | 39951 ft | 434 kts | 254° |
| 2026-05-07 13:38 | 34.55106 | 132.58820 | 39507 ft | 435 kts | 254° |
| 2026-05-07 13:38 | 34.54319 | 132.55269 | 38802 ft | 436 kts | 254° |
| 2026-05-07 13:39 | 34.53528 | 132.51707 | 38124 ft | 436 kts | 254° |
| 2026-05-07 13:39 | 34.52739 | 132.48159 | 37525 ft | 434 kts | 254° |
| 2026-05-07 13:39 | 34.51963 | 132.44675 | 36938 ft | 435 kts | 254° |
| 2026-05-07 13:39 | 34.51175 | 132.41137 | 36346 ft | 436 kts | 254° |
| 2026-05-07 13:40 | 34.50385 | 132.37588 | 35747 ft | 437 kts | 254° |
| 2026-05-07 13:40 | 34.49587 | 132.34026 | 35148 ft | 438 kts | 254° |
| 2026-05-07 13:40 | 34.48781 | 132.30444 | 34550 ft | 442 kts | 253° |
| 2026-05-07 13:40 | 34.47967 | 132.26837 | 34098 ft | 446 kts | 253° |
| 2026-05-07 13:41 | 34.47150 | 132.23189 | 33945 ft | 450 kts | 253° |
| 2026-05-07 13:41 | 34.45488 | 132.15816 | 33926 ft | 455 kts | 253° |
| 2026-05-07 13:42 | 34.43816 | 132.08415 | 33925 ft | 454 kts | 253° |
| 2026-05-07 13:42 | 34.42150 | 132.01044 | 33371 ft | 451 kts | 253° |
| 2026-05-07 13:42 | 34.41320 | 131.97387 | 32649 ft | 449 kts | 254° |
| 2026-05-07 13:43 | 34.40501 | 131.93805 | 32136 ft | 444 kts | 254° |
| 2026-05-07 13:43 | 34.39681 | 131.90224 | 31606 ft | 438 kts | 254° |
| 2026-05-07 13:43 | 34.38867 | 131.86678 | 31087 ft | 433 kts | 254° |
| 2026-05-07 13:43 | 34.38062 | 131.83184 | 30572 ft | 428 kts | 254° |
| 2026-05-07 13:44 | 34.37271 | 131.79727 | 30060 ft | 423 kts | 254° |
| 2026-05-07 13:44 | 34.36484 | 131.76287 | 29509 ft | 425 kts | 254° |
| 2026-05-07 13:44 | 34.35700 | 131.72869 | 28965 ft | 429 kts | 254° |
| 2026-05-07 13:44 | 34.34897 | 131.69379 | 28413 ft | 429 kts | 255° |
| 2026-05-07 13:45 | 34.34102 | 131.65927 | 27868 ft | 425 kts | 255° |
| 2026-05-07 13:45 | 34.33311 | 131.62506 | 27315 ft | 420 kts | 254° |
| 2026-05-07 13:45 | 34.32526 | 131.59115 | 26766 ft | 415 kts | 255° |
| 2026-05-07 13:45 | 34.31752 | 131.55772 | 26216 ft | 411 kts | 255° |
| 2026-05-07 13:46 | 34.30986 | 131.52469 | 25665 ft | 406 kts | 255° |
| 2026-05-07 13:46 | 34.30228 | 131.49202 | 25115 ft | 401 kts | 255° |
| 2026-05-07 13:46 | 34.29479 | 131.45967 | 24571 ft | 397 kts | 254° |
| 2026-05-07 13:46 | 34.28735 | 131.42766 | 24020 ft | 393 kts | 254° |
| 2026-05-07 13:47 | 34.28000 | 131.39605 | 23468 ft | 388 kts | 255° |
| 2026-05-07 13:47 | 34.27274 | 131.36490 | 22921 ft | 384 kts | 254° |
| 2026-05-07 13:47 | 34.26552 | 131.33399 | 22365 ft | 380 kts | 254° |
| 2026-05-07 13:47 | 34.25836 | 131.30345 | 21813 ft | 377 kts | 254° |
| 2026-05-07 13:48 | 34.25124 | 131.27311 | 21269 ft | 375 kts | 254° |
| 2026-05-07 13:48 | 34.24410 | 131.24275 | 20713 ft | 373 kts | 253° |
| 2026-05-07 13:48 | 34.23706 | 131.21276 | 20163 ft | 370 kts | 253° |
| 2026-05-07 13:48 | 34.23007 | 131.18300 | 19795 ft | 367 kts | 253° |
| 2026-05-07 13:49 | 34.22308 | 131.15329 | 19539 ft | 367 kts | 253° |
| 2026-05-07 13:49 | 34.21609 | 131.12364 | 19274 ft | 366 kts | 253° |
| 2026-05-07 13:49 | 34.20913 | 131.09421 | 19021 ft | 363 kts | 253° |
| 2026-05-07 13:49 | 34.20229 | 131.06524 | 18671 ft | 355 kts | 253° |
| 2026-05-07 13:50 | 34.19557 | 131.03675 | 18220 ft | 350 kts | 253° |
| 2026-05-07 13:50 | 34.18751 | 131.00927 | 17719 ft | 347 kts | 247° |
| 2026-05-07 13:50 | 34.17732 | 130.98258 | 17219 ft | 352 kts | 242° |
| 2026-05-07 13:50 | 34.16588 | 130.95620 | 16723 ft | 355 kts | 242° |
| 2026-05-07 13:51 | 34.15430 | 130.92998 | 16218 ft | 351 kts | 242° |
| 2026-05-07 13:51 | 34.14307 | 130.90460 | 15727 ft | 345 kts | 242° |
| 2026-05-07 13:51 | 34.13179 | 130.87925 | 15228 ft | 340 kts | 242° |
| 2026-05-07 13:51 | 34.12062 | 130.85432 | 14733 ft | 335 kts | 242° |
| 2026-05-07 13:52 | 34.10961 | 130.82979 | 14239 ft | 330 kts | 242° |
| 2026-05-07 13:52 | 34.09859 | 130.80538 | 13738 ft | 333 kts | 242° |
| 2026-05-07 13:52 | 34.08735 | 130.78059 | 13237 ft | 339 kts | 242° |
| 2026-05-07 13:52 | 34.07600 | 130.75558 | 12734 ft | 340 kts | 242° |
| 2026-05-07 13:53 | 34.06464 | 130.73063 | 12249 ft | 338 kts | 242° |
| 2026-05-07 13:53 | 34.05331 | 130.70580 | 12014 ft | 337 kts | 242° |
| 2026-05-07 13:53 | 34.04197 | 130.68102 | 11983 ft | 337 kts | 242° |
| 2026-05-07 13:53 | 34.03063 | 130.65624 | 11987 ft | 338 kts | 242° |
| 2026-05-07 13:54 | 34.01932 | 130.63153 | 11889 ft | 333 kts | 242° |
| 2026-05-07 13:54 | 34.00830 | 130.60745 | 11471 ft | 323 kts | 242° |
| 2026-05-07 13:54 | 33.99779 | 130.58444 | 10992 ft | 303 kts | 242° |
| 2026-05-07 13:54 | 33.98793 | 130.56280 | 10532 ft | 286 kts | 242° |
| 2026-05-07 13:55 | 33.97864 | 130.54226 | 10079 ft | 273 kts | 242° |
| 2026-05-07 13:55 | 33.96977 | 130.52244 | 9603 ft | 266 kts | 242° |
| 2026-05-07 13:55 | 33.96127 | 130.50315 | 9174 ft | 261 kts | 242° |
| 2026-05-07 13:55 | 33.95281 | 130.48380 | 8721 ft | 261 kts | 242° |
| 2026-05-07 13:56 | 33.94437 | 130.46436 | 8274 ft | 262 kts | 242° |
| 2026-05-07 13:56 | 33.93602 | 130.44505 | 7821 ft | 259 kts | 242° |
| 2026-05-07 13:56 | 33.92779 | 130.42596 | 7495 ft | 255 kts | 242° |
| 2026-05-07 13:56 | 33.91969 | 130.40700 | 7217 ft | 253 kts | 242° |
| 2026-05-07 13:57 | 33.91494 | 130.38678 | 6955 ft | 254 kts | 264° |
| 2026-05-07 13:57 | 33.91523 | 130.36546 | 6707 ft | 255 kts | 271° |
| 2026-05-07 13:57 | 33.91660 | 130.34425 | 6567 ft | 255 kts | 272° |
| 2026-05-07 13:57 | 33.91805 | 130.32297 | 6443 ft | 255 kts | 272° |
| 2026-05-07 13:58 | 33.91951 | 130.30175 | 6325 ft | 254 kts | 272° |
| 2026-05-07 13:58 | 33.92099 | 130.28057 | 6201 ft | 254 kts | 272° |
| 2026-05-07 13:58 | 33.92247 | 130.25936 | 6074 ft | 254 kts | 272° |
| 2026-05-07 13:58 | 33.92396 | 130.23817 | 5999 ft | 254 kts | 272° |
| 2026-05-07 13:59 | 33.92548 | 130.21733 | 5984 ft | 253 kts | 272° |
| 2026-05-07 13:59 | 33.92703 | 130.19630 | 5983 ft | 252 kts | 272° |
| 2026-05-07 13:59 | 33.92857 | 130.17530 | 5984 ft | 252 kts | 272° |
| 2026-05-07 13:59 | 33.93012 | 130.15427 | 5981 ft | 251 kts | 272° |
| 2026-05-07 14:00 | 33.93169 | 130.13329 | 5984 ft | 252 kts | 272° |
| 2026-05-07 14:00 | 33.93244 | 130.11905 | 5978 ft | 251 kts | 268° |
| 2026-05-07 14:00 | 33.92513 | 130.09345 | 5983 ft | 245 kts | 230° |
| 2026-05-07 14:00 | 33.91673 | 130.08448 | 5985 ft | 245 kts | 212° |
| 2026-05-07 14:01 | 33.90069 | 130.07735 | 5987 ft | 248 kts | 194° |
| 2026-05-07 14:01 | 33.88371 | 130.07339 | 5984 ft | 249 kts | 192° |
| 2026-05-07 14:01 | 33.86636 | 130.06981 | 5984 ft | 249 kts | 192° |
| 2026-05-07 14:01 | 33.84945 | 130.06638 | 5984 ft | 249 kts | 192° |
| 2026-05-07 14:02 | 33.83230 | 130.06290 | 5984 ft | 250 kts | 192° |
| 2026-05-07 14:02 | 33.81516 | 130.05944 | 5983 ft | 250 kts | 192° |
| 2026-05-07 14:02 | 33.79777 | 130.05956 | 5984 ft | 256 kts | 169° |
| 2026-05-07 14:02 | 33.78184 | 130.06940 | 5987 ft | 263 kts | 143° |
| 2026-05-07 14:03 | 33.76930 | 130.08557 | 5984 ft | 265 kts | 133° |
| 2026-05-07 14:03 | 33.75779 | 130.10296 | 5983 ft | 266 kts | 132° |
| 2026-05-07 14:03 | 33.74709 | 130.12130 | 5915 ft | 269 kts | 124° |
| 2026-05-07 14:03 | 33.73791 | 130.14091 | 5671 ft | 269 kts | 122° |
| 2026-05-07 14:04 | 33.72898 | 130.16065 | 5414 ft | 269 kts | 122° |
| 2026-05-07 14:04 | 33.72004 | 130.18041 | 5176 ft | 268 kts | 122° |
| 2026-05-07 14:04 | 33.71112 | 130.20001 | 4929 ft | 267 kts | 122° |
| 2026-05-07 14:04 | 33.70219 | 130.21949 | 4679 ft | 266 kts | 122° |
| 2026-05-07 14:05 | 33.69328 | 130.23877 | 4440 ft | 266 kts | 122° |
| 2026-05-07 14:05 | 33.68432 | 130.25807 | 4191 ft | 264 kts | 122° |
| 2026-05-07 14:05 | 33.67541 | 130.27717 | 3931 ft | 257 kts | 122° |
| 2026-05-07 14:05 | 33.66688 | 130.29541 | 3670 ft | 243 kts | 122° |
| 2026-05-07 14:06 | 33.65867 | 130.31290 | 3418 ft | 232 kts | 122° |
| 2026-05-07 14:06 | 33.65097 | 130.32923 | 3165 ft | 226 kts | 122° |
| 2026-05-07 14:06 | 33.64321 | 130.34533 | 2942 ft | 218 kts | 124° |
| 2026-05-07 14:06 | 33.63284 | 130.35784 | 2696 ft | 209 kts | 147° |
| 2026-05-07 14:07 | 33.62078 | 130.36715 | 2435 ft | 204 kts | 151° |
| 2026-05-07 14:07 | 33.60868 | 130.37588 | 2152 ft | 201 kts | 150° |
| 2026-05-07 14:07 | 33.59687 | 130.38444 | 1898 ft | 198 kts | 149° |
| 2026-05-07 14:07 | 33.58522 | 130.39315 | 1631 ft | 196 kts | 149° |
| 2026-05-07 14:08 | 33.57387 | 130.40163 | 1501 ft | 189 kts | 149° |
| 2026-05-07 14:08 | 33.56278 | 130.40992 | 1484 ft | 183 kts | 148° |
| 2026-05-07 14:08 | 33.55245 | 130.41762 | 1490 ft | 170 kts | 148° |
| 2026-05-07 14:08 | 33.54251 | 130.42503 | 1505 ft | 167 kts | 148° |
| 2026-05-07 14:09 | 33.53263 | 130.43235 | 1503 ft | 166 kts | 148° |
| 2026-05-07 14:09 | 33.52302 | 130.43956 | 1472 ft | 155 kts | 148° |
| 2026-05-07 14:09 | 33.51664 | 130.44874 | 1402 ft | 141 kts | 110° |
| 2026-05-07 14:09 | 33.51728 | 130.46003 | 1171 ft | 138 kts | 64° |
| 2026-05-07 14:10 | 33.52165 | 130.47005 | 1010 ft | 135 kts | 62° |
| 2026-05-07 14:10 | 33.52617 | 130.47987 | 918 ft | 135 kts | 57° |
| 2026-05-07 14:10 | 33.53392 | 130.48564 | 825 ft | 133 kts | 7° |
| 2026-05-07 14:10 | 33.54242 | 130.48204 | 764 ft | 139 kts | 317° |
| 2026-05-07 14:11 | 33.55010 | 130.47512 | 641 ft | 138 kts | 330° |
| 2026-05-07 14:11 | 33.55820 | 130.46957 | 458 ft | 134 kts | 331° |
| 2026-05-07 14:11 | 33.56634 | 130.46399 | 283 ft | 133 kts | 330° |
| 2026-05-07 14:11 | 33.57424 | 130.45861 | 112 ft | 133 kts | 331° |
| 2026-05-07 14:12 | 33.58215 | 130.45322 | 40 ft | 123 kts | 331° |
| 2026-05-07 14:12 | 33.58771 | 130.44945 | 37 ft | 61 kts | 330° |
| 2026-05-07 14:12 | 33.59037 | 130.44790 | 31 ft | 28 kts | 347° |
| 2026-05-07 14:12 | 33.59196 | 130.44766 | 29 ft | 18 kts | 358° |
| 2026-05-07 14:13 | 33.59293 | 130.44767 | 29 ft | 14 kts | 1° |
| 2026-05-07 14:13 | 33.59381 | 130.44755 | 31 ft | 13 kts | 338° |
| 2026-05-07 14:13 | 33.59472 | 130.44693 | 31 ft | 16 kts | 330° |
| 2026-05-07 14:13 | 33.59581 | 130.44620 | 31 ft | 19 kts | 329° |
| 2026-05-07 14:14 | 33.59701 | 130.44537 | 31 ft | 16 kts | 330° |
| 2026-05-07 14:14 | 33.59764 | 130.44517 | 31 ft | 8 kts | 20° |
| 2026-05-07 14:14 | 33.59799 | 130.44560 | 31 ft | 7 kts | 55° |
| 2026-05-07 14:14 | 33.59821 | 130.44603 | 31 ft | 5 kts | 60° |
| 2026-05-07 14:15 | 33.59837 | 130.44638 | 31 ft | 4 kts | 60° |
| 2026-05-07 14:15 | 33.59843 | 130.44651 | 31 ft | 0 kts | 60° |